UNU weather

Dodge County Airport
Juneau, Wisconsin, United States

Public forecast

Using degrees Fahrenheit for public forecast. Weather courtesy of forecast.io.

Current aviation weather report (METAR) for Dodge County Airport

Retrieved 2019/10/15 10:55 UTC (12 minutes ago):

KUNU 151055Z AUTO 12007KT 10SM BKN095 05/03 A2990 RMK AO2 T00500025

Closest aviation forecast (TAF) to Dodge County Airport

Closest forecast is Waukesha County Airport, 30.8 nm (57.1 km) SE. Retrieved 2019/10/15 06:24 UTC (5 hours ago):

TAF KUES 150520Z 1506/1606 00000KT P6SM FEW120 BKN250 FM151000 14004KT P6SM SCT100 BKN200 FM151300 17009KT P6SM VCSH SCT035 OVC080 WS020/19045KT FM151700 21010G21KT P6SM VCSH SCT025 BKN040 FM152100 26013KT P6SM SCT022 BKN035 FM152300 27012G21KT P6SM BKN023